Time;durP1;ratioP1;P1;durP2;ratioP2;P2;SDS_P1;SDS_P2;PMS_P1;PMS_P2;Temp;Humidity;BMP_temperature;BMP_pressure;BME280_temperature;BME280_humidity;BME280_pressure;Samples;Min_cycle;Max_cycle;Signal;HPM_P1;HPM_P2
2020/12/28 00:00:44;;;;;;;1.00;0.93;;;5.20;99.90;;;;;;4983673;28;20211;-71
2020/12/28 00:03:11;;;;;;;1.02;0.90;;;5.10;99.90;;;;;;4982823;28;20250;-73
2020/12/28 00:05:37;;;;;;;1.40;0.90;;;5.10;99.90;;;;;;4983459;28;20207;-72
2020/12/28 00:08:04;;;;;;;0.90;0.80;;;5.10;99.90;;;;;;4983394;28;20222;-72
2020/12/28 00:10:31;;;;;;;1.05;0.95;;;5.00;99.90;;;;;;4982984;28;20207;-72
2020/12/28 00:13:00;;;;;;;1.05;0.93;;;5.00;99.90;;;;;;4982796;28;20239;-72
2020/12/28 00:15:28;;;;;;;1.17;1.00;;;4.90;99.90;;;;;;4982881;28;20800;-72
2020/12/28 00:17:55;;;;;;;1.00;0.88;;;4.90;99.90;;;;;;4982751;28;20210;-72
2020/12/28 00:20:26;;;;;;;2.28;1.10;;;4.90;99.90;;;;;;4983342;28;20754;-72
2020/12/28 00:22:53;;;;;;;1.45;0.90;;;4.80;99.90;;;;;;4982360;28;20635;-72
2020/12/28 00:25:21;;;;;;;1.40;1.30;;;4.80;99.90;;;;;;4982951;28;20726;-71
2020/12/28 00:27:49;;;;;;;1.02;0.80;;;4.70;99.90;;;;;;4982686;28;20207;-72
2020/12/28 00:30:15;;;;;;;1.00;0.82;;;4.70;99.90;;;;;;4984134;28;20211;-70
2020/12/28 00:32:41;;;;;;;1.00;0.90;;;4.70;99.90;;;;;;4983655;28;20614;-71
2020/12/28 00:35:09;;;;;;;3.00;1.20;;;4.70;99.90;;;;;;4984312;28;20213;-71
2020/12/28 00:37:35;;;;;;;1.10;1.00;;;4.70;99.90;;;;;;4984368;28;20203;-71
2020/12/28 00:40:01;;;;;;;1.00;0.90;;;4.60;99.90;;;;;;4984339;28;20203;-72
2020/12/28 00:42:30;;;;;;;1.35;0.80;;;4.60;99.90;;;;;;4983937;28;20686;-71
2020/12/28 00:44:57;;;;;;;1.20;0.95;;;4.60;99.90;;;;;;4984443;28;20645;-71
2020/12/28 00:47:24;;;;;;;1.45;1.00;;;4.60;99.90;;;;;;4984180;28;20203;-72
2020/12/28 00:49:50;;;;;;;1.52;0.95;;;4.70;99.90;;;;;;4984359;28;20440;-71
2020/12/28 00:52:16;;;;;;;1.25;0.90;;;4.80;99.90;;;;;;4983972;28;20302;-72
2020/12/28 00:54:43;;;;;;;1.13;1.02;;;4.80;99.90;;;;;;4984121;28;20235;-71
2020/12/28 00:57:09;;;;;;;1.70;1.15;;;4.90;99.90;;;;;;4984331;28;20198;-71
2020/12/28 00:59:35;;;;;;;1.52;1.00;;;4.90;99.90;;;;;;4984404;28;20210;-72
2020/12/28 01:02:02;;;;;;;1.27;1.00;;;4.90;99.90;;;;;;4983921;28;20207;-71
2020/12/28 01:04:28;;;;;;;1.55;1.27;;;5.00;99.90;;;;;;4984801;28;20558;-72
2020/12/28 01:06:54;;;;;;;1.67;1.30;;;5.10;99.90;;;;;;4984618;28;20217;-72
2020/12/28 01:09:21;;;;;;;1.60;1.17;;;5.10;99.90;;;;;;4984421;28;20238;-72
2020/12/28 01:11:47;;;;;;;1.10;1.00;;;5.00;99.90;;;;;;4983825;28;20211;-71
2020/12/28 01:14:14;;;;;;;1.35;1.25;;;5.00;99.90;;;;;;4985405;28;20632;-71
2020/12/28 01:16:43;;;;;;;0.85;0.80;;;5.00;99.90;;;;;;4987879;28;20210;-71
2020/12/28 01:19:11;;;;;;;0.93;0.82;;;5.10;99.90;;;;;;4988044;28;20746;-71
2020/12/28 01:21:37;;;;;;;1.35;1.00;;;5.10;99.90;;;;;;4986901;28;20302;-71
2020/12/28 01:24:03;;;;;;;1.10;1.00;;;5.20;99.90;;;;;;4987743;28;20227;-72
2020/12/28 01:26:29;;;;;;;1.30;1.00;;;5.20;99.90;;;;;;4987532;28;20742;-71
2020/12/28 01:28:56;;;;;;;1.42;1.10;;;5.20;99.90;;;;;;4987907;28;20247;-71
2020/12/28 01:31:22;;;;;;;1.35;1.20;;;5.10;99.90;;;;;;4987418;28;20426;-71
2020/12/28 01:33:48;;;;;;;1.05;0.90;;;5.10;99.90;;;;;;4986797;28;20305;-71
2020/12/28 01:36:15;;;;;;;1.55;1.45;;;5.10;99.90;;;;;;4987699;28;20769;-71
2020/12/28 01:38:41;;;;;;;1.30;1.20;;;5.10;99.90;;;;;;4987502;28;20206;-71
2020/12/28 01:41:08;;;;;;;1.08;0.98;;;5.10;99.90;;;;;;4987376;28;20203;-71
2020/12/28 01:43:34;;;;;;;1.40;1.30;;;5.10;99.90;;;;;;4986811;28;20741;-71
2020/12/28 01:46:01;;;;;;;1.20;1.10;;;5.10;99.90;;;;;;4987869;28;20226;-71
2020/12/28 01:48:29;;;;;;;1.40;1.20;;;5.20;99.90;;;;;;4987830;28;20698;-71
2020/12/28 01:50:56;;;;;;;1.50;1.20;;;5.10;99.90;;;;;;4987570;28;20261;-70
2020/12/28 01:53:24;;;;;;;1.20;1.10;;;5.10;99.90;;;;;;4986451;28;20242;-71
2020/12/28 01:55:56;;;;;;;1.10;1.00;;;5.10;99.90;;;;;;4987288;28;20662;-71
2020/12/28 01:58:22;;;;;;;2.70;1.20;;;5.20;99.90;;;;;;4987419;28;20222;-71
2020/12/28 02:00:48;;;;;;;1.38;1.27;;;5.10;99.90;;;;;;4986727;28;20230;-71
2020/12/28 02:03:16;;;;;;;1.55;1.00;;;5.10;99.90;;;;;;4986364;28;20274;-71
2020/12/28 02:05:42;;;;;;;1.90;1.30;;;5.20;99.90;;;;;;4986703;28;20257;-71
2020/12/28 02:08:08;;;;;;;0.82;0.77;;;5.20;99.90;;;;;;4987005;28;20203;-70
2020/12/28 02:10:35;;;;;;;1.40;1.30;;;5.10;99.90;;;;;;4986595;28;20218;-71
2020/12/28 02:13:02;;;;;;;1.35;1.17;;;5.10;99.90;;;;;;4986472;28;20227;-71
2020/12/28 02:15:28;;;;;;;1.60;1.17;;;5.10;99.90;;;;;;4986473;28;20207;-71
2020/12/28 02:17:54;;;;;;;1.50;1.30;;;5.10;99.90;;;;;;4986464;28;20203;-72
2020/12/28 02:20:21;;;;;;;1.60;1.40;;;5.00;99.90;;;;;;4986115;28;20218;-72
2020/12/28 02:22:48;;;;;;;1.00;0.90;;;5.00;99.90;;;;;;4985866;28;20587;-72
2020/12/28 02:25:14;;;;;;;1.50;1.40;;;4.90;99.90;;;;;;4986193;28;20242;-71
2020/12/28 02:27:40;;;;;;;1.20;1.10;;;4.90;99.90;;;;;;4986414;28;20237;-71
2020/12/28 02:30:07;;;;;;;1.58;1.05;;;4.90;99.90;;;;;;4986938;28;20231;-71
2020/12/28 02:32:33;;;;;;;1.45;1.17;;;4.80;99.90;;;;;;4986474;28;20215;-71
2020/12/28 02:34:59;;;;;;;1.55;1.45;;;4.80;99.90;;;;;;4986475;28;20434;-72
2020/12/28 02:37:25;;;;;;;1.55;1.45;;;4.70;99.90;;;;;;4986468;28;20222;-72
2020/12/28 02:39:53;;;;;;;1.63;1.25;;;4.70;99.90;;;;;;4986136;28;20207;-71
2020/12/28 02:42:19;;;;;;;1.20;1.10;;;4.70;99.90;;;;;;4985920;28;20214;-71
2020/12/28 02:44:45;;;;;;;1.20;1.10;;;4.70;99.90;;;;;;4986108;28;20630;-71
2020/12/28 02:47:11;;;;;;;1.30;1.20;;;4.60;99.90;;;;;;4986305;28;20820;-71
2020/12/28 02:49:37;;;;;;;1.38;1.17;;;4.60;99.90;;;;;;4985855;28;20219;-72
2020/12/28 02:52:04;;;;;;;1.60;1.17;;;4.60;99.90;;;;;;4990223;28;20203;-70
2020/12/28 02:57:06;;;;;;;1.42;1.25;;;4.50;99.90;;;;;;5006414;23;20238;-73
2020/12/28 02:59:32;;;;;;;1.50;1.40;;;4.50;99.90;;;;;;5010372;28;20195;-72
2020/12/28 03:01:58;;;;;;;2.17;1.20;;;4.40;99.90;;;;;;5009911;28;20217;-73
2020/12/28 03:04:24;;;;;;;1.13;1.00;;;4.40;99.90;;;;;;5010597;28;20219;-73
2020/12/28 03:06:51;;;;;;;1.00;0.90;;;4.40;99.90;;;;;;5010349;28;20215;-74
2020/12/28 03:09:17;;;;;;;1.20;1.10;;;4.40;99.90;;;;;;5010513;28;21018;-73
2020/12/28 03:11:45;;;;;;;1.10;1.00;;;4.40;99.90;;;;;;5009396;28;20228;-73
2020/12/28 03:14:12;;;;;;;1.20;1.00;;;4.40;99.90;;;;;;5010310;28;20655;-73
2020/12/28 03:16:38;;;;;;;1.50;1.40;;;4.40;99.90;;;;;;5010194;28;20213;-73
2020/12/28 03:19:04;;;;;;;1.85;1.20;;;4.40;99.90;;;;;;5010501;28;20614;-73
2020/12/28 03:21:30;;;;;;;1.23;1.13;;;4.40;99.90;;;;;;5010367;28;20207;-72
2020/12/28 03:23:57;;;;;;;1.48;1.30;;;4.40;99.90;;;;;;5009559;28;20227;-72
2020/12/28 03:26:23;;;;;;;1.48;1.38;;;4.40;99.90;;;;;;5010468;28;20210;-73
2020/12/28 03:28:49;;;;;;;3.22;1.45;;;4.30;99.90;;;;;;5009756;28;20222;-73
2020/12/28 03:31:16;;;;;;;1.50;1.10;;;4.30;99.90;;;;;;5010243;28;20207;-73
2020/12/28 03:33:42;;;;;;;2.00;1.25;;;4.30;99.90;;;;;;5009128;28;20226;-73
2020/12/28 03:36:09;;;;;;;1.58;1.40;;;4.30;99.90;;;;;;5009641;28;20693;-72
2020/12/28 03:38:35;;;;;;;1.83;1.10;;;4.30;99.90;;;;;;5009944;28;20198;-72
2020/12/28 03:41:01;;;;;;;1.25;1.15;;;4.20;99.90;;;;;;5009932;28;20276;-73
2020/12/28 03:43:27;;;;;;;1.45;1.30;;;4.20;99.90;;;;;;5009496;28;20542;-72
2020/12/28 03:45:54;;;;;;;1.40;1.30;;;4.20;99.90;;;;;;5009543;28;20272;-73
2020/12/28 03:48:21;;;;;;;1.20;1.10;;;4.20;99.90;;;;;;5010116;28;20202;-72
2020/12/28 03:50:47;;;;;;;1.40;1.20;;;4.10;99.90;;;;;;5007407;28;20199;-73
2020/12/28 03:53:13;;;;;;;1.10;1.00;;;4.20;99.90;;;;;;5009061;28;20230;-73
2020/12/28 03:55:39;;;;;;;1.70;1.02;;;4.10;99.90;;;;;;5009528;28;20214;-73
2020/12/28 03:58:05;;;;;;;1.20;1.10;;;4.10;99.90;;;;;;5009596;28;20789;-72
2020/12/28 04:00:31;;;;;;;1.33;1.23;;;4.20;99.90;;;;;;5009753;28;20198;-73
2020/12/28 04:02:58;;;;;;;1.20;1.10;;;4.10;99.90;;;;;;5009117;28;20347;-73
2020/12/28 04:05:25;;;;;;;6.20;1.30;;;4.00;99.90;;;;;;5009683;28;20252;-73
2020/12/28 04:07:51;;;;;;;1.15;0.90;;;4.00;99.90;;;;;;5009125;28;20206;-73
2020/12/28 04:10:17;;;;;;;1.10;1.00;;;4.10;99.90;;;;;;5009495;28;20272;-73
2020/12/28 04:12:43;;;;;;;3.03;1.05;;;4.00;99.90;;;;;;5008912;28;20801;-73
2020/12/28 04:15:09;;;;;;;1.10;1.00;;;4.00;99.90;;;;;;5010212;28;20210;-73
2020/12/28 04:17:36;;;;;;;1.20;1.10;;;4.00;99.90;;;;;;5009963;28;20210;-73
2020/12/28 04:20:02;;;;;;;1.48;1.38;;;4.00;99.90;;;;;;5009590;28;20203;-73
2020/12/28 04:22:29;;;;;;;1.33;1.00;;;3.90;99.90;;;;;;5009298;28;20234;-73
2020/12/28 04:24:55;;;;;;;1.58;1.30;;;3.90;99.90;;;;;;5009249;28;20226;-73
2020/12/28 04:27:22;;;;;;;1.17;1.05;;;3.80;99.90;;;;;;5009670;28;20207;-73
2020/12/28 04:29:48;;;;;;;1.55;1.25;;;3.80;99.90;;;;;;5009196;28;20222;-73
2020/12/28 04:32:15;;;;;;;1.20;1.00;;;3.90;99.90;;;;;;5009194;28;20272;-73
2020/12/28 04:34:41;;;;;;;1.70;1.27;;;3.80;99.90;;;;;;5009178;28;20645;-73
2020/12/28 04:37:07;;;;;;;0.80;0.80;;;3.90;99.90;;;;;;5009551;28;20213;-73
2020/12/28 04:39:34;;;;;;;1.20;1.10;;;3.80;99.90;;;;;;5009784;28;20209;-73
2020/12/28 04:42:00;;;;;;;1.30;0.90;;;3.80;99.90;;;;;;5008676;28;20462;-73
2020/12/28 04:44:27;;;;;;;1.10;1.00;;;3.80;99.90;;;;;;5009522;28;20222;-73
2020/12/28 04:46:53;;;;;;;1.33;1.20;;;3.80;99.90;;;;;;5009109;28;20394;-73
2020/12/28 04:49:19;;;;;;;1.77;1.00;;;3.80;99.90;;;;;;5009327;28;20257;-72
2020/12/28 04:51:46;;;;;;;1.40;1.10;;;3.80;99.90;;;;;;5008572;28;20260;-73
2020/12/28 04:54:12;;;;;;;1.42;1.10;;;3.80;99.90;;;;;;5009204;28;20564;-73
2020/12/28 04:56:41;;;;;;;1.65;1.10;;;3.80;99.90;;;;;;5009078;28;20686;-73
2020/12/28 04:59:07;;;;;;;1.98;1.10;;;3.80;99.90;;;;;;5009316;28;20273;-73
2020/12/28 05:01:34;;;;;;;1.42;1.05;;;3.80;99.90;;;;;;5008925;28;20249;-73
2020/12/28 05:04:00;;;;;;;2.20;1.20;;;3.80;99.90;;;;;;5008729;28;20230;-73
2020/12/28 05:06:26;;;;;;;1.25;1.15;;;3.70;99.90;;;;;;5009338;28;20206;-73
2020/12/28 05:08:54;;;;;;;5.60;1.75;;;3.70;99.90;;;;;;5008732;28;20601;-72
2020/12/28 05:11:20;;;;;;;2.85;1.23;;;3.70;99.90;;;;;;5009068;28;20210;-73
2020/12/28 05:13:48;;;;;;;1.20;1.10;;;3.70;99.90;;;;;;5008768;28;20226;-73
2020/12/28 05:16:15;;;;;;;4.10;1.15;;;3.70;99.90;;;;;;5009052;28;20707;-72
2020/12/28 05:18:42;;;;;;;2.00;1.08;;;3.70;99.90;;;;;;5009075;28;20202;-73
2020/12/28 05:21:08;;;;;;;2.55;1.10;;;3.70;99.90;;;;;;5008833;28;20210;-73
2020/12/28 05:23:35;;;;;;;1.40;1.20;;;3.70;99.90;;;;;;5008425;28;20604;-73
2020/12/28 05:26:05;;;;;;;1.23;1.05;;;3.60;99.90;;;;;;5008803;28;20198;-73
2020/12/28 05:28:34;;;;;;;1.20;1.10;;;3.60;99.90;;;;;;5009060;28;20234;-73
2020/12/28 05:31:03;;;;;;;1.20;1.10;;;3.60;99.90;;;;;;5008856;28;20236;-73
2020/12/28 05:33:32;;;;;;;1.15;1.00;;;3.50;99.90;;;;;;5008434;28;20222;-73
2020/12/28 05:35:58;;;;;;;1.30;1.17;;;3.50;99.90;;;;;;5008830;28;20211;-73
2020/12/28 05:38:26;;;;;;;1.10;0.90;;;3.50;99.90;;;;;;5008837;28;20255;-73
2020/12/28 05:41:01;;;;;;;1.38;1.00;;;3.50;99.90;;;;;;5008688;28;20651;-73
2020/12/28 05:43:28;;;;;;;1.60;1.20;;;3.50;99.90;;;;;;5008324;28;20253;-73
2020/12/28 05:45:54;;;;;;;1.10;1.00;;;3.50;99.90;;;;;;5008949;28;20684;-73
2020/12/28 05:48:23;;;;;;;1.00;0.90;;;3.50;99.90;;;;;;5008532;28;20214;-73
2020/12/28 05:50:55;;;;;;;0.88;0.80;;;3.50;99.90;;;;;;5008515;28;20733;-74
2020/12/28 05:53:23;;;;;;;1.95;1.15;;;3.50;99.90;;;;;;5008227;28;20234;-73
2020/12/28 05:55:51;;;;;;;2.58;1.05;;;3.50;99.90;;;;;;5008418;28;20679;-73
2020/12/28 05:58:19;;;;;;;1.20;1.10;;;3.50;99.90;;;;;;5008641;28;20238;-73
2020/12/28 06:00:45;;;;;;;1.55;0.90;;;3.50;99.90;;;;;;5010032;28;20202;-73
2020/12/28 06:03:12;;;;;;;1.20;0.95;;;3.50;99.90;;;;;;5011572;28;20226;-73
2020/12/28 06:05:39;;;;;;;1.85;1.20;;;3.50;99.90;;;;;;5011870;28;20636;-73
2020/12/28 06:08:05;;;;;;;1.58;1.20;;;3.50;99.90;;;;;;5012365;28;20206;-73
2020/12/28 06:10:35;;;;;;;1.80;1.00;;;3.50;99.90;;;;;;5011878;28;20226;-74
2020/12/28 06:13:01;;;;;;;1.25;1.15;;;3.50;99.90;;;;;;5011353;28;20218;-73
2020/12/28 06:15:27;;;;;;;1.30;1.20;;;3.50;99.90;;;;;;5012018;28;20206;-74
2020/12/28 06:17:53;;;;;;;0.90;0.80;;;3.50;99.90;;;;;;5011559;28;20206;-74
2020/12/28 06:20:29;;;;;;;1.80;1.10;;;3.50;99.90;;;;;;5011645;28;20203;-74
2020/12/28 06:23:04;;;;;;;1.20;1.10;;;3.60;99.90;;;;;;5010862;28;20226;-73
2020/12/28 06:25:30;;;;;;;1.52;1.10;;;3.60;99.90;;;;;;5011774;28;20624;-73
2020/12/28 06:27:56;;;;;;;2.28;1.45;;;3.50;99.90;;;;;;5011560;28;20305;-73
2020/12/28 06:30:23;;;;;;;1.75;1.33;;;3.50;99.90;;;;;;5011442;28;20605;-73
2020/12/28 06:32:53;;;;;;;1.38;1.20;;;3.50;99.90;;;;;;5010745;28;20213;-73
2020/12/28 06:35:19;;;;;;;1.92;1.05;;;3.50;99.90;;;;;;5011437;28;20264;-73
2020/12/28 06:37:48;;;;;;;5.93;2.20;;;3.50;99.90;;;;;;5011527;28;20242;-73
2020/12/28 06:40:29;;;;;;;3.05;1.30;;;3.50;99.90;;;;;;5011026;28;20204;-73
2020/12/28 06:43:05;;;;;;;1.50;1.20;;;3.50;99.90;;;;;;5010673;28;20320;-73
2020/12/28 06:45:31;;;;;;;2.95;1.10;;;3.40;99.90;;;;;;5011367;28;20240;-73
2020/12/28 06:47:58;;;;;;;1.40;0.90;;;3.50;99.90;;;;;;5010789;28;20577;-73
2020/12/28 06:50:24;;;;;;;1.48;0.90;;;3.50;99.90;;;;;;5011238;28;20230;-73
2020/12/28 06:52:51;;;;;;;2.45;1.00;;;3.40;99.90;;;;;;5010379;28;20209;-74
2020/12/28 06:55:18;;;;;;;1.48;0.90;;;3.40;99.90;;;;;;5011039;28;20245;-73
2020/12/28 06:57:44;;;;;;;1.35;1.00;;;3.40;99.90;;;;;;5011078;28;20213;-73
2020/12/28 07:00:18;;;;;;;1.05;0.95;;;3.40;99.90;;;;;;5011020;28;20585;-73
2020/12/28 07:02:50;;;;;;;1.50;1.10;;;3.40;99.90;;;;;;5010374;28;20199;-73
2020/12/28 07:05:21;;;;;;;1.35;0.95;;;3.30;99.90;;;;;;5010868;28;20206;-73
2020/12/28 07:07:47;;;;;;;1.77;1.08;;;3.30;99.90;;;;;;5010881;28;20207;-73
2020/12/28 07:10:19;;;;;;;0.90;0.80;;;3.20;99.90;;;;;;5010583;28;20233;-73
2020/12/28 07:12:46;;;;;;;1.55;1.45;;;3.20;99.90;;;;;;5010055;28;20253;-73
2020/12/28 07:15:13;;;;;;;1.33;1.00;;;3.20;99.90;;;;;;5010555;28;20207;-71
2020/12/28 07:17:40;;;;;;;2.80;1.40;;;3.10;99.90;;;;;;5010611;28;20205;-72
2020/12/28 07:20:11;;;;;;;1.73;1.40;;;3.10;99.90;;;;;;5010885;28;20564;-72
2020/12/28 07:22:38;;;;;;;4.30;1.00;;;3.20;99.90;;;;;;5009892;28;20230;-72
2020/12/28 07:25:06;;;;;;;1.20;1.10;;;3.20;99.90;;;;;;5010635;28;20265;-72
2020/12/28 07:27:33;;;;;;;1.55;1.23;;;3.10;99.90;;;;;;5010502;28;20650;-72
2020/12/28 07:30:05;;;;;;;1.85;1.75;;;3.10;99.90;;;;;;5010216;28;20226;-72
2020/12/28 07:32:31;;;;;;;1.08;0.98;;;3.10;99.90;;;;;;5009922;28;20210;-72
2020/12/28 07:34:57;;;;;;;1.63;1.25;;;3.10;99.90;;;;;;5010161;28;20227;-72
2020/12/28 07:37:24;;;;;;;1.52;1.10;;;3.10;99.90;;;;;;5010291;28;20217;-74
2020/12/28 07:39:51;;;;;;;2.55;1.15;;;3.10;99.90;;;;;;5010133;28;20629;-73
2020/12/28 07:42:21;;;;;;;1.83;1.42;;;3.20;99.90;;;;;;5009738;28;20210;-73
2020/12/28 07:44:56;;;;;;;3.65;1.23;;;3.10;99.90;;;;;;5009579;28;20851;-73
2020/12/28 07:47:31;;;;;;;1.80;1.45;;;3.20;99.90;;;;;;5006810;28;20621;-73
2020/12/28 07:50:01;;;;;;;2.17;1.63;;;3.20;99.90;;;;;;5009733;28;20872;-73
2020/12/28 07:52:28;;;;;;;2.38;1.38;;;3.20;99.90;;;;;;5009380;28;20214;-73
2020/12/28 07:55:13;;;;;;;2.03;1.40;;;3.20;99.90;;;;;;5009450;28;20237;-73
2020/12/28 07:57:52;;;;;;;1.88;1.48;;;3.30;99.90;;;;;;5009811;28;20245;-73
2020/12/28 08:00:24;;;;;;;1.95;1.67;;;3.30;99.90;;;;;;5009514;28;20581;-72
2020/12/28 08:03:05;;;;;;;1.60;1.20;;;3.20;99.90;;;;;;5008710;28;20202;-73
2020/12/28 08:05:34;;;;;;;1.85;1.55;;;3.20;99.90;;;;;;5009620;28;20248;-73
2020/12/28 08:08:01;;;;;;;3.30;1.38;;;3.20;99.90;;;;;;5009526;28;20229;-73
2020/12/28 08:10:27;;;;;;;3.25;1.40;;;3.20;99.90;;;;;;5009271;28;20234;-73
2020/12/28 08:12:58;;;;;;;2.45;1.60;;;3.20;99.90;;;;;;5008735;28;20654;-73
2020/12/28 08:15:30;;;;;;;1.23;1.13;;;3.20;99.90;;;;;;5008950;28;20557;-73
2020/12/28 08:18:10;;;;;;;1.58;1.20;;;3.20;99.90;;;;;;4980924;28;20291;-73
2020/12/28 08:20:37;;;;;;;1.45;1.10;;;3.20;99.90;;;;;;4968814;28;20198;-72
2020/12/28 08:23:03;;;;;;;1.30;1.10;;;3.20;99.90;;;;;;4969177;28;20286;-73
2020/12/28 08:25:30;;;;;;;2.30;1.10;;;3.30;99.90;;;;;;4970360;28;20211;-73
2020/12/28 08:27:58;;;;;;;1.50;1.10;;;3.20;99.90;;;;;;4970892;28;20266;-72
2020/12/28 08:30:26;;;;;;;1.10;0.90;;;3.20;99.90;;;;;;4970112;28;20764;-73
2020/12/28 08:32:53;;;;;;;1.77;1.20;;;3.20;99.90;;;;;;4969807;28;20235;-72
2020/12/28 08:35:20;;;;;;;1.20;1.10;;;3.20;99.90;;;;;;4970174;28;20250;-71
2020/12/28 08:37:50;;;;;;;1.05;0.95;;;3.20;99.90;;;;;;4969890;28;20211;-71
2020/12/28 08:40:17;;;;;;;1.50;1.10;;;3.20;99.90;;;;;;4970074;28;20734;-71
2020/12/28 08:42:44;;;;;;;1.27;0.75;;;3.20;99.90;;;;;;4969479;28;20214;-70
2020/12/28 08:45:18;;;;;;;1.55;1.13;;;3.30;99.90;;;;;;4970073;28;20203;-71
2020/12/28 08:47:45;;;;;;;2.13;1.10;;;3.40;99.90;;;;;;4969576;28;20207;-71
2020/12/28 08:50:12;;;;;;;2.78;1.20;;;3.40;99.90;;;;;;4969898;28;20274;-70
2020/12/28 08:52:48;;;;;;;1.20;1.08;;;3.40;99.90;;;;;;4970063;28;20204;-70
2020/12/28 08:57:53;;;;;;;1.83;0.85;;;3.50;99.90;;;;;;5004114;28;20218;-71
2020/12/28 09:00:19;;;;;;;1.52;0.88;;;3.50;99.90;;;;;;5008580;28;20205;-71
2020/12/28 09:02:53;;;;;;;1.20;1.05;;;3.60;99.90;;;;;;5008243;28;20207;-71
2020/12/28 09:05:21;;;;;;;3.03;1.10;;;3.60;99.90;;;;;;5008610;28;20214;-71
2020/12/28 09:07:47;;;;;;;1.25;1.15;;;3.60;99.90;;;;;;5008782;28;20198;-71
2020/12/28 09:10:14;;;;;;;2.13;1.65;;;3.60;99.90;;;;;;5008768;28;20247;-71
2020/12/28 09:12:40;;;;;;;1.58;1.27;;;3.50;99.90;;;;;;5008201;28;20237;-71
2020/12/28 09:15:07;;;;;;;3.50;1.52;;;3.50;99.90;;;;;;4980186;28;20586;-70
2020/12/28 09:17:33;;;;;;;1.58;1.10;;;3.50;99.90;;;;;;4975289;28;20247;-72
2020/12/28 09:19:59;;;;;;;1.52;1.20;;;3.50;99.90;;;;;;4979483;28;20210;-72
2020/12/28 09:22:26;;;;;;;2.00;1.30;;;3.50;99.90;;;;;;4985513;28;20250;-71
2020/12/28 09:24:52;;;;;;;1.30;1.20;;;3.50;99.90;;;;;;4987963;28;20223;-72
2020/12/28 09:27:19;;;;;;;1.80;1.50;;;3.40;99.90;;;;;;4977979;28;20223;-71
2020/12/28 09:29:45;;;;;;;2.28;1.50;;;3.40;99.90;;;;;;4978163;28;20219;-70
2020/12/28 09:32:11;;;;;;;2.85;1.65;;;3.40;99.90;;;;;;4969193;28;20200;-70
2020/12/28 09:34:37;;;;;;;3.25;1.80;;;3.40;99.90;;;;;;4976189;28;20646;-71
2020/12/28 09:37:05;;;;;;;2.10;1.50;;;3.40;99.90;;;;;;4989980;28;20225;-71
2020/12/28 09:39:33;;;;;;;2.10;1.73;;;3.40;99.90;;;;;;4989928;28;20613;-70
2020/12/28 09:42:00;;;;;;;1.92;1.50;;;3.40;99.90;;;;;;4989283;28;20222;-69
2020/12/28 09:44:26;;;;;;;1.63;1.52;;;3.50;99.90;;;;;;4988782;28;20227;-71
2020/12/28 09:46:53;;;;;;;2.20;1.63;;;3.50;99.90;;;;;;4990047;28;20206;-72
2020/12/28 09:49:21;;;;;;;2.58;1.98;;;3.60;99.90;;;;;;4991932;28;20223;-71
2020/12/28 09:51:48;;;;;;;1.80;1.40;;;3.60;99.90;;;;;;4988599;28;20215;-72
2020/12/28 09:54:14;;;;;;;2.22;1.58;;;3.70;99.90;;;;;;4989768;28;20273;-70
2020/12/28 09:56:41;;;;;;;1.50;1.20;;;3.70;99.90;;;;;;4988797;28;20215;-71
2020/12/28 09:59:07;;;;;;;3.35;1.30;;;3.70;99.90;;;;;;4989467;28;20199;-73
2020/12/28 10:01:34;;;;;;;1.52;1.30;;;3.70;99.90;;;;;;4989067;28;20217;-73
2020/12/28 10:04:00;;;;;;;4.47;1.45;;;3.70;99.90;;;;;;4989312;28;20285;-71
2020/12/28 10:06:34;;;;;;;1.70;1.60;;;3.80;99.90;;;;;;4990991;28;20207;-72
2020/12/28 10:09:01;;;;;;;2.30;1.45;;;3.80;99.90;;;;;;4988575;28;20238;-72
2020/12/28 10:11:27;;;;;;;2.53;2.05;;;3.80;99.90;;;;;;4988958;28;20203;-70
2020/12/28 10:13:54;;;;;;;3.15;2.70;;;3.80;99.90;;;;;;4988377;28;20258;-71
2020/12/28 10:16:21;;;;;;;2.97;2.70;;;3.80;99.90;;;;;;4989175;28;20254;-70
2020/12/28 10:18:47;;;;;;;2.78;2.58;;;3.70;99.90;;;;;;4989589;28;20238;-71
2020/12/28 10:21:14;;;;;;;2.78;2.45;;;3.70;99.90;;;;;;4989915;28;20203;-71
2020/12/28 10:23:40;;;;;;;3.00;2.13;;;3.80;99.90;;;;;;4988922;28;21226;-71
2020/12/28 10:26:07;;;;;;;3.30;2.90;;;3.80;99.90;;;;;;4990451;28;20213;-70
2020/12/28 10:28:35;;;;;;;3.08;2.75;;;3.80;99.90;;;;;;4988014;28;20207;-72
2020/12/28 10:31:02;;;;;;;3.22;2.92;;;3.80;99.90;;;;;;4990060;28;20245;-69
2020/12/28 10:33:28;;;;;;;3.40;3.10;;;3.90;99.90;;;;;;4989078;28;20226;-71
2020/12/28 10:35:54;;;;;;;4.13;3.40;;;3.90;99.90;;;;;;4989432;28;20207;-73
2020/12/28 10:38:21;;;;;;;3.30;3.00;;;3.90;99.90;;;;;;4989989;28;20265;-73
2020/12/28 10:40:47;;;;;;;3.08;2.78;;;3.90;99.90;;;;;;4987586;28;20203;-73
2020/12/28 10:43:13;;;;;;;3.00;2.70;;;3.90;99.90;;;;;;4989427;28;20246;-72
2020/12/28 10:45:39;;;;;;;3.10;2.75;;;3.90;99.90;;;;;;4988040;28;20204;-72
2020/12/28 10:48:06;;;;;;;3.53;3.22;;;4.00;99.90;;;;;;4988742;28;20697;-71
2020/12/28 10:50:32;;;;;;;2.80;2.60;;;4.00;99.90;;;;;;4988447;28;20242;-71
2020/12/28 10:52:59;;;;;;;2.67;2.40;;;4.00;99.90;;;;;;4987173;28;20230;-72
2020/12/28 10:55:25;;;;;;;2.92;2.72;;;3.90;99.90;;;;;;4987905;28;20214;-71
2020/12/28 10:57:51;;;;;;;4.20;2.90;;;3.90;99.90;;;;;;4987849;28;20698;-71
2020/12/28 11:00:17;;;;;;;3.50;3.00;;;3.90;99.90;;;;;;4988124;28;20199;-71
2020/12/28 11:02:44;;;;;;;3.10;2.80;;;3.90;99.90;;;;;;4987059;28;20211;-72
2020/12/28 11:05:11;;;;;;;3.60;3.08;;;3.90;99.90;;;;;;4988186;28;20203;-71
2020/12/28 11:07:37;;;;;;;2.60;2.40;;;3.90;99.90;;;;;;4986091;28;20647;-71
2020/12/28 11:10:03;;;;;;;3.28;2.97;;;3.90;99.90;;;;;;4989097;28;20223;-72
2020/12/28 11:12:30;;;;;;;2.47;2.28;;;3.90;99.90;;;;;;4987779;28;20219;-72
2020/12/28 11:14:56;;;;;;;3.03;2.72;;;3.90;99.90;;;;;;4988309;28;20226;-71
2020/12/28 11:17:22;;;;;;;3.38;2.80;;;3.90;99.90;;;;;;4988640;28;20211;-71
2020/12/28 11:19:48;;;;;;;3.22;2.75;;;3.90;99.90;;;;;;4987238;28;20204;-71
2020/12/28 11:22:16;;;;;;;3.30;3.00;;;4.00;99.90;;;;;;4987378;28;20216;-71
2020/12/28 11:24:42;;;;;;;3.72;2.95;;;4.00;99.90;;;;;;4987300;28;20223;-72
2020/12/28 11:27:08;;;;;;;3.65;3.00;;;4.00;99.90;;;;;;4987730;28;20580;-71
2020/12/28 11:29:34;;;;;;;4.45;3.13;;;4.00;99.90;;;;;;4987357;28;20230;-71
2020/12/28 11:32:00;;;;;;;2.90;2.60;;;4.00;99.90;;;;;;4986272;28;20203;-72
2020/12/28 11:34:26;;;;;;;3.65;2.70;;;4.10;99.90;;;;;;4987624;28;20230;-71
2020/12/28 11:36:53;;;;;;;3.35;3.05;;;4.10;99.90;;;;;;4987561;28;20627;-71
2020/12/28 11:39:20;;;;;;;4.35;2.65;;;4.10;99.90;;;;;;4986332;28;20200;-71
2020/12/28 11:41:46;;;;;;;8.65;2.72;;;4.20;99.90;;;;;;4986702;28;20214;-71
2020/12/28 11:44:14;;;;;;;2.47;2.28;;;4.20;99.90;;;;;;4986580;28;20604;-71
2020/12/28 11:46:42;;;;;;;3.75;2.63;;;4.20;99.90;;;;;;4982761;28;21693;-72
2020/12/28 11:49:08;;;;;;;2.95;2.38;;;4.20;99.90;;;;;;4986624;28;20214;-71
2020/12/28 11:51:34;;;;;;;2.50;2.30;;;4.20;99.90;;;;;;4986003;28;20245;-69
2020/12/28 11:54:00;;;;;;;2.55;2.10;;;4.30;99.90;;;;;;4987412;28;20236;-72
2020/12/28 11:56:27;;;;;;;3.67;2.42;;;4.30;99.90;;;;;;4986041;28;20457;-72
2020/12/28 11:58:54;;;;;;;2.47;2.22;;;4.30;99.90;;;;;;4985750;28;20223;-70
2020/12/28 12:01:20;;;;;;;3.88;3.42;;;4.40;99.90;;;;;;4986705;28;20617;-70
2020/12/28 12:03:48;;;;;;;3.85;2.63;;;4.40;99.90;;;;;;4986318;28;20219;-72
2020/12/28 12:06:15;;;;;;;2.05;1.85;;;4.40;99.90;;;;;;4987369;28;20226;-71
2020/12/28 12:11:23;;;;;;;3.92;2.22;;;4.50;99.90;;;;;;4986543;28;20231;-70
2020/12/28 12:13:50;;;;;;;2.70;2.20;;;4.50;99.90;;;;;;4986550;28;20572;-72
2020/12/28 12:16:21;;;;;;;2.70;2.00;;;4.50;99.90;;;;;;4986920;28;20203;-72
2020/12/28 12:18:47;;;;;;;2.53;2.33;;;4.60;99.90;;;;;;4986141;28;20203;-72
2020/12/28 12:21:13;;;;;;;2.40;2.17;;;4.60;99.90;;;;;;4982161;28;20356;-72
2020/12/28 12:23:40;;;;;;;2.42;2.10;;;4.60;99.90;;;;;;4985393;28;20600;-72
2020/12/28 12:26:06;;;;;;;8.02;2.40;;;4.60;99.90;;;;;;4987346;28;20630;-71
2020/12/28 12:28:32;;;;;;;1.92;1.80;;;4.60;99.90;;;;;;4985159;28;20585;-71
2020/12/28 12:30:59;;;;;;;2.67;2.00;;;4.60;99.90;;;;;;4985425;28;20231;-70
2020/12/28 12:33:25;;;;;;;2.50;1.80;;;4.60;99.90;;;;;;4985694;28;20222;-70
2020/12/28 12:35:52;;;;;;;2.30;1.75;;;4.50;99.90;;;;;;4985237;28;20257;-72
2020/12/28 12:38:18;;;;;;;1.70;1.60;;;4.50;99.90;;;;;;4986904;28;21171;-70
2020/12/28 12:40:44;;;;;;;1.65;1.55;;;4.50;99.90;;;;;;4985865;28;20667;-70
2020/12/28 12:43:10;;;;;;;1.50;1.40;;;4.50;99.90;;;;;;4986857;28;20306;-71
2020/12/28 12:45:37;;;;;;;2.58;1.58;;;4.40;99.90;;;;;;4984814;28;20200;-71
2020/12/28 12:48:04;;;;;;;1.60;1.50;;;4.40;99.90;;;;;;4983102;28;20210;-70
2020/12/28 12:50:30;;;;;;;1.58;1.40;;;4.40;99.90;;;;;;4985297;28;20634;-72
2020/12/28 12:52:56;;;;;;;1.90;1.50;;;4.30;99.90;;;;;;4985581;28;20334;-71
2020/12/28 12:55:22;;;;;;;1.65;1.55;;;4.20;99.90;;;;;;4987150;28;21995;-72
2020/12/28 12:57:49;;;;;;;1.70;1.55;;;4.20;99.90;;;;;;4984997;28;20269;-71
2020/12/28 13:00:18;;;;;;;1.33;1.20;;;4.20;99.90;;;;;;4984771;28;20218;-71
2020/12/28 13:02:45;;;;;;;2.10;1.30;;;4.10;99.90;;;;;;4982616;28;20670;-71
2020/12/28 13:05:13;;;;;;;1.77;1.42;;;4.10;99.90;;;;;;4980424;28;20200;-70